sensor_id;sensor_type;location;lat;lon;timestamp;pressure;altitude;pressure_sealevel;temperature;humidity
20009;BME280;10165;42.662;23.260;2024-01-15T00:00:17;93531.88;;;1.36;54.47
20009;BME280;10165;42.662;23.260;2024-01-15T00:02:44;93522.06;;;1.51;54.42
20009;BME280;10165;42.662;23.260;2024-01-15T00:05:10;93526.94;;;1.66;53.82
20009;BME280;10165;42.662;23.260;2024-01-15T00:07:37;93519.03;;;1.66;53.75
20009;BME280;10165;42.662;23.260;2024-01-15T00:10:04;93521.75;;;1.83;53.32
20009;BME280;10165;42.662;23.260;2024-01-15T00:12:31;93516.66;;;1.86;53.28
20009;BME280;10165;42.662;23.260;2024-01-15T00:14:58;93518.22;;;1.96;53.19
20009;BME280;10165;42.662;23.260;2024-01-15T00:17:24;93504.88;;;1.92;52.78
20009;BME280;10165;42.662;23.260;2024-01-15T00:19:51;93513.44;;;1.59;52.98
20009;BME280;10165;42.662;23.260;2024-01-15T00:22:19;93520.69;;;1.31;53.92
20009;BME280;10165;42.662;23.260;2024-01-15T00:24:46;93513.38;;;1.50;53.64
20009;BME280;10165;42.662;23.260;2024-01-15T00:27:13;93519.25;;;1.78;53.21
20009;BME280;10165;42.662;23.260;2024-01-15T00:29:40;93516.50;;;1.83;52.93
20009;BME280;10165;42.662;23.260;2024-01-15T00:32:06;93524.72;;;1.90;52.83
20009;BME280;10165;42.662;23.260;2024-01-15T00:34:33;93518.78;;;1.76;53.19
20009;BME280;10165;42.662;23.260;2024-01-15T00:37:00;93516.00;;;1.81;52.97
20009;BME280;10165;42.662;23.260;2024-01-15T00:39:27;93518.41;;;1.69;52.86
20009;BME280;10165;42.662;23.260;2024-01-15T00:41:53;93528.59;;;1.62;53.01
20009;BME280;10165;42.662;23.260;2024-01-15T00:44:20;93519.19;;;1.61;53.37
20009;BME280;10165;42.662;23.260;2024-01-15T00:46:47;93526.84;;;1.79;52.97
20009;BME280;10165;42.662;23.260;2024-01-15T00:49:14;93519.75;;;1.88;52.74
20009;BME280;10165;42.662;23.260;2024-01-15T00:51:42;93529.72;;;1.61;53.13
20009;BME280;10165;42.662;23.260;2024-01-15T00:54:08;93518.34;;;1.82;53.23
20009;BME280;10165;42.662;23.260;2024-01-15T00:56:36;93518.38;;;1.91;52.80
20009;BME280;10165;42.662;23.260;2024-01-15T00:59:03;93517.63;;;1.60;52.98
20009;BME280;10165;42.662;23.260;2024-01-15T01:01:30;93516.78;;;1.51;53.56
20009;BME280;10165;42.662;23.260;2024-01-15T01:03:56;93522.88;;;1.60;53.53
20009;BME280;10165;42.662;23.260;2024-01-15T01:06:24;93510.53;;;1.69;53.24
20009;BME280;10165;42.662;23.260;2024-01-15T01:08:51;93506.75;;;1.83;52.82
20009;BME280;10165;42.662;23.260;2024-01-15T01:11:18;93523.31;;;1.92;52.70
20009;BME280;10165;42.662;23.260;2024-01-15T01:13:45;93520.47;;;1.80;52.74
20009;BME280;10165;42.662;23.260;2024-01-15T01:16:12;93516.94;;;1.85;52.66
20009;BME280;10165;42.662;23.260;2024-01-15T01:18:39;93508.59;;;1.83;52.88
20009;BME280;10165;42.662;23.260;2024-01-15T01:21:06;93511.06;;;1.79;53.09
20009;BME280;10165;42.662;23.260;2024-01-15T01:23:33;93510.78;;;1.89;52.50
20009;BME280;10165;42.662;23.260;2024-01-15T01:25:59;93501.66;;;1.96;52.41
20009;BME280;10165;42.662;23.260;2024-01-15T01:28:26;93487.72;;;1.95;52.64
20009;BME280;10165;42.662;23.260;2024-01-15T01:30:53;93488.47;;;1.96;52.27
20009;BME280;10165;42.662;23.260;2024-01-15T01:33:20;93488.06;;;2.02;52.27
20009;BME280;10165;42.662;23.260;2024-01-15T01:35:47;93486.16;;;1.94;52.24
20009;BME280;10165;42.662;23.260;2024-01-15T01:38:14;93491.97;;;1.74;52.60
20009;BME280;10165;42.662;23.260;2024-01-15T01:40:40;93489.66;;;1.81;52.46
20009;BME280;10165;42.662;23.260;2024-01-15T01:43:09;93484.91;;;1.83;52.50
20009;BME280;10165;42.662;23.260;2024-01-15T01:45:36;93487.56;;;1.91;52.51
20009;BME280;10165;42.662;23.260;2024-01-15T01:48:03;93467.75;;;1.55;52.95
20009;BME280;10165;42.662;23.260;2024-01-15T01:50:31;93476.47;;;1.64;52.99
20009;BME280;10165;42.662;23.260;2024-01-15T01:53:00;93483.44;;;1.68;52.74
20009;BME280;10165;42.662;23.260;2024-01-15T01:55:27;93473.34;;;1.62;52.82
20009;BME280;10165;42.662;23.260;2024-01-15T01:57:56;93476.91;;;1.66;53.04
20009;BME280;10165;42.662;23.260;2024-01-15T02:00:23;93473.34;;;1.62;53.21
20009;BME280;10165;42.662;23.260;2024-01-15T02:02:50;93471.81;;;1.69;52.85
20009;BME280;10165;42.662;23.260;2024-01-15T02:05:21;93467.94;;;1.67;53.10
20009;BME280;10165;42.662;23.260;2024-01-15T02:07:48;93456.53;;;1.71;53.20
20009;BME280;10165;42.662;23.260;2024-01-15T02:10:16;93464.38;;;1.63;53.18
20009;BME280;10165;42.662;23.260;2024-01-15T02:12:43;93456.34;;;1.76;52.81
20009;BME280;10165;42.662;23.260;2024-01-15T02:15:10;93451.41;;;1.75;52.85
20009;BME280;10165;42.662;23.260;2024-01-15T02:18:14;93449.16;;;1.51;52.73
20009;BME280;10165;42.662;23.260;2024-01-15T02:20:41;93446.81;;;1.10;55.08
20009;BME280;10165;42.662;23.260;2024-01-15T02:23:10;93427.59;;;1.40;53.99
20009;BME280;10165;42.662;23.260;2024-01-15T02:25:41;93401.53;;;1.70;53.45
20009;BME280;10165;42.662;23.260;2024-01-15T02:28:10;93402.78;;;1.64;53.36
20009;BME280;10165;42.662;23.260;2024-01-15T02:30:38;93405.66;;;1.54;53.51
20009;BME280;10165;42.662;23.260;2024-01-15T02:33:07;93401.41;;;1.75;53.19
20009;BME280;10165;42.662;23.260;2024-01-15T02:35:34;93399.91;;;1.91;52.47
20009;BME280;10165;42.662;23.260;2024-01-15T02:38:05;93413.50;;;1.84;52.74
20009;BME280;10165;42.662;23.260;2024-01-15T02:40:33;93410.88;;;1.93;52.56
20009;BME280;10165;42.662;23.260;2024-01-15T02:43:00;93407.97;;;1.95;52.59
20009;BME280;10165;42.662;23.260;2024-01-15T02:45:27;93407.03;;;1.90;52.51
20009;BME280;10165;42.662;23.260;2024-01-15T02:47:53;93405.31;;;1.86;52.51
20009;BME280;10165;42.662;23.260;2024-01-15T02:50:20;93407.72;;;1.65;52.85
20009;BME280;10165;42.662;23.260;2024-01-15T02:52:47;93417.22;;;1.83;52.88
20009;BME280;10165;42.662;23.260;2024-01-15T02:55:14;93404.66;;;1.32;54.17
20009;BME280;10165;42.662;23.260;2024-01-15T02:57:41;93407.13;;;1.29;54.69
20009;BME280;10165;42.662;23.260;2024-01-15T03:00:08;93407.81;;;1.43;54.30
20009;BME280;10165;42.662;23.260;2024-01-15T03:02:38;93390.81;;;1.49;54.29
20009;BME280;10165;42.662;23.260;2024-01-15T03:05:10;93402.28;;;1.53;54.18
20009;BME280;10165;42.662;23.260;2024-01-15T03:07:36;93392.44;;;1.76;53.60
20009;BME280;10165;42.662;23.260;2024-01-15T03:10:04;93395.50;;;1.61;53.37
20009;BME280;10165;42.662;23.260;2024-01-15T03:12:32;93408.19;;;1.67;53.53
20009;BME280;10165;42.662;23.260;2024-01-15T03:14:59;93389.19;;;1.31;55.08
20009;BME280;10165;42.662;23.260;2024-01-15T03:17:25;93397.59;;;1.50;54.47
20009;BME280;10165;42.662;23.260;2024-01-15T03:19:52;93380.50;;;1.78;53.86
20009;BME280;10165;42.662;23.260;2024-01-15T03:22:19;93376.78;;;1.88;53.74
20009;BME280;10165;42.662;23.260;2024-01-15T03:24:49;93382.25;;;1.91;53.59
20009;BME280;10165;42.662;23.260;2024-01-15T03:27:15;93377.81;;;1.53;54.60
20009;BME280;10165;42.662;23.260;2024-01-15T03:29:42;93371.09;;;1.95;53.96
20009;BME280;10165;42.662;23.260;2024-01-15T03:32:09;93376.00;;;1.70;54.37
20009;BME280;10165;42.662;23.260;2024-01-15T03:34:36;93382.97;;;1.75;54.76
20009;BME280;10165;42.662;23.260;2024-01-15T03:37:03;93385.13;;;1.73;54.62
20009;BME280;10165;42.662;23.260;2024-01-15T03:39:30;93390.28;;;1.86;54.45
20009;BME280;10165;42.662;23.260;2024-01-15T03:41:57;93383.28;;;1.73;54.36
20009;BME280;10165;42.662;23.260;2024-01-15T03:44:24;93384.72;;;2.05;54.10
20009;BME280;10165;42.662;23.260;2024-01-15T03:46:51;93376.38;;;2.03;53.86
20009;BME280;10165;42.662;23.260;2024-01-15T03:49:17;93377.44;;;2.02;53.69
20009;BME280;10165;42.662;23.260;2024-01-15T03:51:44;93372.78;;;2.08;53.93
20009;BME280;10165;42.662;23.260;2024-01-15T03:54:12;93366.94;;;2.11;53.82
20009;BME280;10165;42.662;23.260;2024-01-15T03:56:38;93367.84;;;2.15;53.29
20009;BME280;10165;42.662;23.260;2024-01-15T03:59:05;93383.81;;;2.10;53.34
20009;BME280;10165;42.662;23.260;2024-01-15T04:01:32;93374.59;;;1.73;53.83
20009;BME280;10165;42.662;23.260;2024-01-15T04:03:58;93367.34;;;1.78;54.26
20009;BME280;10165;42.662;23.260;2024-01-15T04:06:25;93360.69;;;1.81;54.22
20009;BME280;10165;42.662;23.260;2024-01-15T04:08:52;93350.28;;;1.59;54.68
20009;BME280;10165;42.662;23.260;2024-01-15T04:11:19;93350.88;;;1.47;54.56
20009;BME280;10165;42.662;23.260;2024-01-15T04:13:46;93352.72;;;1.38;54.79
20009;BME280;10165;42.662;23.260;2024-01-15T04:16:13;93356.91;;;1.00;55.76
20009;BME280;10165;42.662;23.260;2024-01-15T04:18:39;93362.00;;;0.74;56.80
20009;BME280;10165;42.662;23.260;2024-01-15T04:21:06;93356.47;;;1.06;56.12
20009;BME280;10165;42.662;23.260;2024-01-15T04:23:33;93359.97;;;1.32;55.66
20009;BME280;10165;42.662;23.260;2024-01-15T04:26:00;93356.19;;;1.16;55.67
20009;BME280;10165;42.662;23.260;2024-01-15T04:28:27;93366.75;;;1.25;55.37
20009;BME280;10165;42.662;23.260;2024-01-15T04:30:53;93361.78;;;1.23;55.43
20009;BME280;10165;42.662;23.260;2024-01-15T04:33:20;93366.13;;;1.28;55.26
20009;BME280;10165;42.662;23.260;2024-01-15T04:35:47;93363.34;;;0.93;56.29
20009;BME280;10165;42.662;23.260;2024-01-15T04:38:14;93366.97;;;0.75;56.95
20009;BME280;10165;42.662;23.260;2024-01-15T04:40:40;93354.97;;;0.83;56.75
20009;BME280;10165;42.662;23.260;2024-01-15T04:43:07;93357.94;;;0.90;56.94
20009;BME280;10165;42.662;23.260;2024-01-15T04:45:34;93353.91;;;1.32;55.91
20009;BME280;10165;42.662;23.260;2024-01-15T04:48:01;93354.19;;;0.82;56.76
20009;BME280;10165;42.662;23.260;2024-01-15T04:50:28;93349.53;;;1.10;56.44
20009;BME280;10165;42.662;23.260;2024-01-15T04:52:55;93354.31;;;1.17;55.98
20009;BME280;10165;42.662;23.260;2024-01-15T04:55:21;93334.16;;;1.04;56.43
20009;BME280;10165;42.662;23.260;2024-01-15T04:57:48;93329.25;;;1.19;56.77
20009;BME280;10165;42.662;23.260;2024-01-15T05:00:15;93326.22;;;1.26;56.33
20009;BME280;10165;42.662;23.260;2024-01-15T05:02:42;93324.69;;;0.94;56.54
20009;BME280;10165;42.662;23.260;2024-01-15T05:05:09;93317.88;;;0.93;56.65
20009;BME280;10165;42.662;23.260;2024-01-15T05:07:36;93318.31;;;0.86;56.93
20009;BME280;10165;42.662;23.260;2024-01-15T05:10:02;93318.38;;;1.04;57.21
20009;BME280;10165;42.662;23.260;2024-01-15T05:12:30;93316.13;;;1.11;57.00
20009;BME280;10165;42.662;23.260;2024-01-15T05:14:57;93317.06;;;1.23;56.30
20009;BME280;10165;42.662;23.260;2024-01-15T05:17:23;93327.59;;;0.31;57.82
20009;BME280;10165;42.662;23.260;2024-01-15T05:19:50;93338.13;;;-0.27;60.18
20009;BME280;10165;42.662;23.260;2024-01-15T05:22:17;93341.94;;;-0.11;60.22
20009;BME280;10165;42.662;23.260;2024-01-15T05:24:43;93339.38;;;0.11;59.71
20009;BME280;10165;42.662;23.260;2024-01-15T05:27:10;93340.50;;;0.41;59.15
20009;BME280;10165;42.662;23.260;2024-01-15T05:29:37;93343.28;;;0.67;58.31
20009;BME280;10165;42.662;23.260;2024-01-15T05:32:04;93325.94;;;0.57;58.35
20009;BME280;10165;42.662;23.260;2024-01-15T05:34:30;93317.78;;;0.67;58.34
20009;BME280;10165;42.662;23.260;2024-01-15T05:36:57;93313.69;;;0.53;58.30
20009;BME280;10165;42.662;23.260;2024-01-15T05:39:24;93326.22;;;0.56;58.35
20009;BME280;10165;42.662;23.260;2024-01-15T05:41:51;93307.31;;;0.45;58.15
20009;BME280;10165;42.662;23.260;2024-01-15T05:44:18;93318.47;;;-0.16;59.69
20009;BME280;10165;42.662;23.260;2024-01-15T05:46:44;93306.78;;;0.12;60.13
20009;BME280;10165;42.662;23.260;2024-01-15T05:49:11;93304.53;;;0.50;59.46
20009;BME280;10165;42.662;23.260;2024-01-15T05:51:38;93306.25;;;0.24;58.87
20009;BME280;10165;42.662;23.260;2024-01-15T05:54:05;93303.13;;;-0.59;61.07
20009;BME280;10165;42.662;23.260;2024-01-15T05:56:32;93304.34;;;-0.07;60.90
20009;BME280;10165;42.662;23.260;2024-01-15T05:58:59;93307.59;;;0.43;59.81
20009;BME280;10165;42.662;23.260;2024-01-15T06:01:25;93312.50;;;0.36;58.75
20009;BME280;10165;42.662;23.260;2024-01-15T06:03:52;93307.59;;;0.43;59.08
20009;BME280;10165;42.662;23.260;2024-01-15T06:06:19;93297.91;;;0.22;59.48
20009;BME280;10165;42.662;23.260;2024-01-15T06:08:46;93289.44;;;0.56;58.79
20009;BME280;10165;42.662;23.260;2024-01-15T06:11:13;93306.69;;;0.79;58.13
20009;BME280;10165;42.662;23.260;2024-01-15T06:13:39;93307.22;;;0.89;58.32
20009;BME280;10165;42.662;23.260;2024-01-15T06:16:15;93301.44;;;0.79;58.13
20009;BME280;10165;42.662;23.260;2024-01-15T06:18:43;93305.22;;;0.95;58.17
20009;BME280;10165;42.662;23.260;2024-01-15T06:21:10;93306.97;;;1.08;57.78
20009;BME280;10165;42.662;23.260;2024-01-15T06:23:39;93302.31;;;1.05;57.40
20009;BME280;10165;42.662;23.260;2024-01-15T06:26:06;93289.50;;;1.12;57.35
20009;BME280;10165;42.662;23.260;2024-01-15T06:28:33;93297.97;;;1.01;57.38
20009;BME280;10165;42.662;23.260;2024-01-15T06:31:00;93297.75;;;0.88;57.77
20009;BME280;10165;42.662;23.260;2024-01-15T06:33:27;93304.34;;;0.69;58.31
20009;BME280;10165;42.662;23.260;2024-01-15T06:35:54;93308.34;;;0.66;58.40
20009;BME280;10165;42.662;23.260;2024-01-15T06:38:20;93299.78;;;0.52;59.41
20009;BME280;10165;42.662;23.260;2024-01-15T06:40:47;93312.78;;;0.57;59.37
20009;BME280;10165;42.662;23.260;2024-01-15T06:43:19;93315.41;;;0.88;59.04
20009;BME280;10165;42.662;23.260;2024-01-15T06:45:45;93308.53;;;1.09;58.50
20009;BME280;10165;42.662;23.260;2024-01-15T06:48:12;93317.63;;;1.60;57.71
20009;BME280;10165;42.662;23.260;2024-01-15T06:50:40;93305.84;;;1.66;57.39
20009;BME280;10165;42.662;23.260;2024-01-15T06:53:07;93307.09;;;1.60;57.38
20009;BME280;10165;42.662;23.260;2024-01-15T06:55:34;93308.34;;;1.97;56.61
20009;BME280;10165;42.662;23.260;2024-01-15T06:58:01;93312.38;;;2.11;56.27
20009;BME280;10165;42.662;23.260;2024-01-15T07:00:27;93318.56;;;2.15;55.71
20009;BME280;10165;42.662;23.260;2024-01-15T07:02:54;93322.91;;;2.20;55.41
20009;BME280;10165;42.662;23.260;2024-01-15T07:05:21;93326.94;;;1.74;56.29
20009;BME280;10165;42.662;23.260;2024-01-15T07:07:48;93331.22;;;1.44;57.68
20009;BME280;10165;42.662;23.260;2024-01-15T07:10:15;93330.50;;;1.78;57.25
20009;BME280;10165;42.662;23.260;2024-01-15T07:12:42;93324.31;;;2.00;56.96
20009;BME280;10165;42.662;23.260;2024-01-15T07:15:10;93329.75;;;2.21;56.48
20009;BME280;10165;42.662;23.260;2024-01-15T07:17:37;93320.56;;;2.35;56.06
20009;BME280;10165;42.662;23.260;2024-01-15T07:20:07;93317.94;;;2.35;55.32
20009;BME280;10165;42.662;23.260;2024-01-15T07:22:37;93304.13;;;2.56;55.07
20009;BME280;10165;42.662;23.260;2024-01-15T07:25:04;93302.69;;;2.67;54.87
20009;BME280;10165;42.662;23.260;2024-01-15T07:27:32;93305.34;;;2.58;54.48
20009;BME280;10165;42.662;23.260;2024-01-15T07:29:59;93308.63;;;2.55;54.46
20009;BME280;10165;42.662;23.260;2024-01-15T07:32:28;93297.72;;;2.65;54.31
20009;BME280;10165;42.662;23.260;2024-01-15T07:34:55;93304.19;;;2.21;55.52
20009;BME280;10165;42.662;23.260;2024-01-15T07:37:22;93303.84;;;2.40;55.33
20009;BME280;10165;42.662;23.260;2024-01-15T07:39:50;93298.97;;;2.68;55.18
20009;BME280;10165;42.662;23.260;2024-01-15T07:42:16;93299.56;;;2.82;54.99
20009;BME280;10165;42.662;23.260;2024-01-15T07:44:43;93297.66;;;2.91;54.04
20009;BME280;10165;42.662;23.260;2024-01-15T07:47:11;93310.34;;;2.98;53.89
20009;BME280;10165;42.662;23.260;2024-01-15T07:49:38;93315.94;;;2.96;53.71
20009;BME280;10165;42.662;23.260;2024-01-15T07:52:05;93307.06;;;3.09;53.52
20009;BME280;10165;42.662;23.260;2024-01-15T07:54:32;93299.00;;;3.06;53.82
20009;BME280;10165;42.662;23.260;2024-01-15T07:57:01;93294.69;;;3.30;53.05
20009;BME280;10165;42.662;23.260;2024-01-15T07:59:29;93281.84;;;1.50;56.36
20009;BME280;10165;42.662;23.260;2024-01-15T08:01:57;93275.56;;;2.66;54.94
20009;BME280;10165;42.662;23.260;2024-01-15T08:04:24;93277.91;;;3.06;54.15
20009;BME280;10165;42.662;23.260;2024-01-15T08:06:51;93279.50;;;2.98;54.47
20009;BME280;10165;42.662;23.260;2024-01-15T08:09:18;93286.19;;;2.87;54.68
20009;BME280;10165;42.662;23.260;2024-01-15T08:11:45;93307.25;;;2.40;56.26
20009;BME280;10165;42.662;23.260;2024-01-15T08:14:12;93309.28;;;2.18;56.44
20009;BME280;10165;42.662;23.260;2024-01-15T08:16:39;93303.47;;;0.82;60.91
20009;BME280;10165;42.662;23.260;2024-01-15T08:19:07;93315.34;;;2.18;57.88
20009;BME280;10165;42.662;23.260;2024-01-15T08:21:34;93310.44;;;2.72;57.00
20009;BME280;10165;42.662;23.260;2024-01-15T08:24:02;93300.25;;;3.00;55.55
20009;BME280;10165;42.662;23.260;2024-01-15T08:26:29;93301.88;;;3.21;55.09
20009;BME280;10165;42.662;23.260;2024-01-15T08:28:56;93316.03;;;2.53;56.30
20009;BME280;10165;42.662;23.260;2024-01-15T08:31:23;93316.41;;;2.09;56.56
20009;BME280;10165;42.662;23.260;2024-01-15T08:33:50;93315.50;;;1.87;58.14
20009;BME280;10165;42.662;23.260;2024-01-15T08:36:18;93303.53;;;2.33;56.24
20009;BME280;10165;42.662;23.260;2024-01-15T08:38:45;93305.97;;;2.55;55.48
20009;BME280;10165;42.662;23.260;2024-01-15T08:41:11;93289.75;;;3.29;54.51
20009;BME280;10165;42.662;23.260;2024-01-15T08:43:38;93287.44;;;3.19;53.69
20009;BME280;10165;42.662;23.260;2024-01-15T08:46:06;93285.16;;;3.17;53.77
20009;BME280;10165;42.662;23.260;2024-01-15T08:48:34;93294.88;;;3.55;53.50
20009;BME280;10165;42.662;23.260;2024-01-15T08:51:01;93288.06;;;3.74;53.09
20009;BME280;10165;42.662;23.260;2024-01-15T08:53:27;93278.34;;;2.61;55.21
20009;BME280;10165;42.662;23.260;2024-01-15T08:55:54;93283.13;;;3.44;54.07
20009;BME280;10165;42.662;23.260;2024-01-15T08:58:23;93277.09;;;3.43;53.38
20009;BME280;10165;42.662;23.260;2024-01-15T09:00:50;93253.41;;;3.76;52.71
20009;BME280;10165;42.662;23.260;2024-01-15T09:03:17;93254.97;;;3.77;52.14
20009;BME280;10165;42.662;23.260;2024-01-15T09:05:44;93254.56;;;4.08;51.80
20009;BME280;10165;42.662;23.260;2024-01-15T09:08:11;93244.72;;;3.96;52.26
20009;BME280;10165;42.662;23.260;2024-01-15T09:10:38;93226.31;;;4.20;51.85
20009;BME280;10165;42.662;23.260;2024-01-15T09:13:05;93216.00;;;4.07;51.63
20009;BME280;10165;42.662;23.260;2024-01-15T09:15:31;93211.25;;;4.21;51.86
20009;BME280;10165;42.662;23.260;2024-01-15T09:17:59;93212.38;;;4.32;51.13
20009;BME280;10165;42.662;23.260;2024-01-15T09:20:26;93206.03;;;4.57;50.59
20009;BME280;10165;42.662;23.260;2024-01-15T09:22:54;93202.84;;;4.52;50.59
20009;BME280;10165;42.662;23.260;2024-01-15T09:25:20;93200.81;;;4.49;50.80
20009;BME280;10165;42.662;23.260;2024-01-15T09:27:47;93207.69;;;4.62;50.15
20009;BME280;10165;42.662;23.260;2024-01-15T09:30:14;93196.94;;;4.34;50.56
20009;BME280;10165;42.662;23.260;2024-01-15T09:32:42;93180.66;;;4.32;50.59
20009;BME280;10165;42.662;23.260;2024-01-15T09:35:09;93178.63;;;4.17;50.85
20009;BME280;10165;42.662;23.260;2024-01-15T09:37:36;93173.97;;;4.47;50.25
20009;BME280;10165;42.662;23.260;2024-01-15T09:40:14;93178.38;;;4.55;50.32
20009;BME280;10165;42.662;23.260;2024-01-15T09:42:42;93172.09;;;4.59;50.50
20009;BME280;10165;42.662;23.260;2024-01-15T09:45:09;93159.41;;;4.41;50.53
20009;BME280;10165;42.662;23.260;2024-01-15T09:47:37;93147.06;;;4.57;49.12
20009;BME280;10165;42.662;23.260;2024-01-15T09:50:09;93147.06;;;4.45;49.63
20009;BME280;10165;42.662;23.260;2024-01-15T09:52:36;93129.69;;;4.44;49.75
20009;BME280;10165;42.662;23.260;2024-01-15T09:55:03;93141.78;;;4.69;48.80
20009;BME280;10165;42.662;23.260;2024-01-15T09:57:32;93128.47;;;4.77;49.13
20009;BME280;10165;42.662;23.260;2024-01-15T10:00:02;93128.34;;;4.98;48.78
20009;BME280;10165;42.662;23.260;2024-01-15T10:02:32;93137.72;;;4.83;49.34
20009;BME280;10165;42.662;23.260;2024-01-15T10:04:59;93140.41;;;4.14;49.52
20009;BME280;10165;42.662;23.260;2024-01-15T10:07:27;93134.38;;;4.14;49.65
20009;BME280;10165;42.662;23.260;2024-01-15T10:09:56;93131.66;;;4.47;50.05
20009;BME280;10165;42.662;23.260;2024-01-15T10:12:23;93126.69;;;4.33;49.72
20009;BME280;10165;42.662;23.260;2024-01-15T10:14:50;93117.44;;;4.88;48.50
20009;BME280;10165;42.662;23.260;2024-01-15T10:17:17;93106.31;;;4.33;48.83
20009;BME280;10165;42.662;23.260;2024-01-15T10:19:48;93096.84;;;4.81;48.20
20009;BME280;10165;42.662;23.260;2024-01-15T10:22:16;93100.72;;;4.59;48.02
20009;BME280;10165;42.662;23.260;2024-01-15T10:24:45;93097.69;;;4.00;49.30
20009;BME280;10165;42.662;23.260;2024-01-15T10:27:14;93084.06;;;4.47;48.63
20009;BME280;10165;42.662;23.260;2024-01-15T10:29:41;93087.97;;;5.13;47.19
20009;BME280;10165;42.662;23.260;2024-01-15T10:32:09;93093.19;;;4.86;47.56
20009;BME280;10165;42.662;23.260;2024-01-15T10:34:40;93082.88;;;5.20;47.34
20009;BME280;10165;42.662;23.260;2024-01-15T10:37:08;93092.63;;;4.92;48.36
20009;BME280;10165;42.662;23.260;2024-01-15T10:39:35;93085.56;;;4.96;48.33
20009;BME280;10165;42.662;23.260;2024-01-15T10:42:04;93098.31;;;5.06;47.56
20009;BME280;10165;42.662;23.260;2024-01-15T10:44:31;93084.03;;;5.35;47.33
20009;BME280;10165;42.662;23.260;2024-01-15T10:46:58;93074.75;;;5.41;47.10
20009;BME280;10165;42.662;23.260;2024-01-15T10:49:24;93075.31;;;5.35;47.65
20009;BME280;10165;42.662;23.260;2024-01-15T10:52:00;93061.44;;;5.25;47.70
20009;BME280;10165;42.662;23.260;2024-01-15T10:54:27;93062.00;;;5.31;47.86
20009;BME280;10165;42.662;23.260;2024-01-15T10:56:56;93052.91;;;5.60;46.57
20009;BME280;10165;42.662;23.260;2024-01-15T10:59:23;93055.34;;;5.09;47.60
20009;BME280;10165;42.662;23.260;2024-01-15T11:01:51;93058.06;;;5.68;46.77
20009;BME280;10165;42.662;23.260;2024-01-15T11:04:23;93042.63;;;4.75;48.10
20009;BME280;10165;42.662;23.260;2024-01-15T11:06:54;93047.66;;;4.92;48.52
20009;BME280;10165;42.662;23.260;2024-01-15T11:09:25;93050.47;;;4.35;49.36
20009;BME280;10165;42.662;23.260;2024-01-15T11:12:07;93048.31;;;4.89;48.28
20009;BME280;10165;42.662;23.260;2024-01-15T11:14:41;93043.31;;;5.12;48.37
20009;BME280;10165;42.662;23.260;2024-01-15T11:17:12;93025.97;;;5.14;48.14
20009;BME280;10165;42.662;23.260;2024-01-15T11:19:47;93030.72;;;5.92;47.00
20009;BME280;10165;42.662;23.260;2024-01-15T11:25:12;93028.53;;;5.82;46.80
20009;BME280;10165;42.662;23.260;2024-01-15T11:27:47;93027.81;;;5.97;46.01
20009;BME280;10165;42.662;23.260;2024-01-15T11:30:14;93022.53;;;5.97;46.74
20009;BME280;10165;42.662;23.260;2024-01-15T11:32:41;93019.91;;;6.48;46.19
20009;BME280;10165;42.662;23.260;2024-01-15T11:35:10;93028.63;;;6.64;45.45
20009;BME280;10165;42.662;23.260;2024-01-15T11:42:59;93021.66;;;6.24;46.35
20009;BME280;10165;42.662;23.260;2024-01-15T11:45:27;93026.28;;;6.28;45.80
20009;BME280;10165;42.662;23.260;2024-01-15T11:48:15;93013.19;;;6.03;46.74
20009;BME280;10165;42.662;23.260;2024-01-15T11:50:48;93019.34;;;6.07;47.04
20009;BME280;10165;42.662;23.260;2024-01-15T11:53:39;92990.44;;;6.18;46.61
20009;BME280;10165;42.662;23.260;2024-01-15T11:56:15;92995.22;;;6.44;45.75
20009;BME280;10165;42.662;23.260;2024-01-15T11:58:43;93001.72;;;6.31;46.57
20009;BME280;10165;42.662;23.260;2024-01-15T12:01:10;92993.28;;;6.60;46.05
20009;BME280;10165;42.662;23.260;2024-01-15T12:03:37;92991.31;;;6.57;45.96
20009;BME280;10165;42.662;23.260;2024-01-15T12:06:08;92982.25;;;6.58;45.78
20009;BME280;10165;42.662;23.260;2024-01-15T12:08:36;92969.38;;;6.25;47.24
20009;BME280;10165;42.662;23.260;2024-01-15T12:11:06;92976.38;;;6.49;46.19
20009;BME280;10165;42.662;23.260;2024-01-15T12:13:34;92986.53;;;6.62;46.80
20009;BME280;10165;42.662;23.260;2024-01-15T12:16:01;92977.34;;;6.60;46.32
20009;BME280;10165;42.662;23.260;2024-01-15T12:18:29;92975.19;;;6.46;46.70
20009;BME280;10165;42.662;23.260;2024-01-15T12:20:57;92970.69;;;6.66;46.88
20009;BME280;10165;42.662;23.260;2024-01-15T12:23:25;92978.22;;;6.64;46.52
20009;BME280;10165;42.662;23.260;2024-01-15T12:25:51;92973.31;;;6.31;47.57
20009;BME280;10165;42.662;23.260;2024-01-15T12:28:18;92958.75;;;6.41;47.30
20009;BME280;10165;42.662;23.260;2024-01-15T12:30:46;92972.38;;;6.74;46.49
20009;BME280;10165;42.662;23.260;2024-01-15T12:33:17;92960.16;;;6.69;45.75
20009;BME280;10165;42.662;23.260;2024-01-15T12:35:45;92959.00;;;6.51;46.52
20009;BME280;10165;42.662;23.260;2024-01-15T12:38:11;92950.78;;;6.95;45.62
20009;BME280;10165;42.662;23.260;2024-01-15T12:40:38;92950.03;;;6.94;45.72
20009;BME280;10165;42.662;23.260;2024-01-15T12:43:06;92946.97;;;6.92;45.34
20009;BME280;10165;42.662;23.260;2024-01-15T12:45:34;92940.94;;;6.95;45.80
20009;BME280;10165;42.662;23.260;2024-01-15T12:48:02;92940.19;;;6.95;45.86
20009;BME280;10165;42.662;23.260;2024-01-15T12:50:30;92936.22;;;6.85;45.75
20009;BME280;10165;42.662;23.260;2024-01-15T12:52:59;92940.38;;;6.86;46.08
20009;BME280;10165;42.662;23.260;2024-01-15T12:55:26;92939.41;;;6.94;46.32
20009;BME280;10165;42.662;23.260;2024-01-15T12:57:53;92942.06;;;6.94;46.17
20009;BME280;10165;42.662;23.260;2024-01-15T13:00:21;92921.00;;;6.82;46.31
20009;BME280;10165;42.662;23.260;2024-01-15T13:02:48;92921.53;;;6.91;46.47
20009;BME280;10165;42.662;23.260;2024-01-15T13:05:16;92931.84;;;6.58;46.35
20009;BME280;10165;42.662;23.260;2024-01-15T13:07:43;92924.31;;;6.79;46.69
20009;BME280;10165;42.662;23.260;2024-01-15T13:10:10;92921.53;;;6.72;46.63